Terminal Aerodrome Forecast
Issued by NWS Louisville, KY

Home | Current Version | Previous Version | Text Only | Print | Product List | Glossary On
Versions: 1 2 3 4 5 6 7 8 9 10 11 12 13 14 15
000
FTUS43 KLMK 280520
TAFBWG
TAF
KBWG 280520Z 2806/0106 16005KT P6SM SCT100
     FM280800 17006KT P6SM OVC050
     FM281100 18010KT 4SM -SHRA BR OVC015
     FM281700 20014G21KT 5SM BR VCSH OVC015
     FM282200 20014G21KT 5SM BR OVC008=

USA.gov is the U.S. government's official web portal to all federal, state and local government web resources and services.